Biloxi, MS

10:34 PM CDT on June 22, 2017 (GMT -0500)
Keesler Air Force Base

Weather History for KBIX - December, 2013

Change the Weather History Date:

Saturday, December 7, 2013

  Actual Average Record
Temperature  
Mean Temperature 44 °F -  
Max Temperature 48 °F 64 °F 78 °F (1951)
Min Temperature 40 °F 47 °F 28 °F (1984)
Degree Days  
Heating Degree Days 21    
Moisture  
Dew Point 44 °F    
Average Humidity 100    
Maximum Humidity 100    
Minimum Humidity 93    
Precipitation  
Precipitation 0.15 in - - ()
Sea Level Pressure  
Sea Level Pressure 30.23 in    
Wind  
Wind Speed 13 mph (NNE)    
Max Wind Speed 17 mph    
Max Gust Speed 23 mph    
Visibility 8 miles    
Events Rain    
Averages and records for this station are not official NWS values.
T = Trace of Precipitation, MM = Missing Value Source: NWS Daily Summary

Daily Weather History Graph

Daily Weather History Graph

Search for Another Location

Airport or City:

Trip Planner

Search our weather history database for the weather conditions in past years. The results will help you decide how hot, cold, wet, or windy it might be!

Date:

Astronomy

Dec. 07, 2013 Rise Set
Actual Time 6:39 AM CST 4:54 PM CST
Civil Twilight 6:13 AM CST 5:21 PM CST
Nautical Twilight 5:43 AM CST 5:51 PM CST
Astronomical Twilight 5:14 AM CST 6:20 PM CST
Moon 10:38 AM CST (12/7) 10:20 PM CST (12/7)
Length of Visible Light 11h 07m
Length of Day
10h 15m
Waxing Crescent, 29% of the Moon is Illuminated
Dec 7
Waxing Crescent
Dec 9
First Quarter
Dec 17
Full
Dec 25
Last Quarter
Jan 1
New

Hourly Weather History & Observations

Time (CST) Temp. Windchill Dew Point Humidity Pressure Visibility Wind Dir Wind Speed Gust Speed Precip Events Conditions
12:12 AM 48.2 °F - 48.2 °F 100% 30.17 in 10.0 mi North 11.5 mph - N/A   Mostly Cloudy
12:22 AM 48.2 °F - 48.2 °F 100% 30.18 in 10.0 mi North 12.7 mph 18.4 mph N/A   Overcast
12:32 AM 48.2 °F - 48.2 °F 100% 30.18 in 10.0 mi North 16.1 mph - N/A Rain Light Rain
12:37 AM 48.2 °F - 48.2 °F 100% 30.18 in 10.0 mi North 13.8 mph 23.0 mph N/A Rain Light Rain
12:42 AM 48.2 °F - 48.2 °F 100% 30.18 in 10.0 mi North 12.7 mph 23.0 mph N/A   Mostly Cloudy
12:47 AM 48.2 °F - 48.2 °F 100% 30.18 in 10.0 mi North 13.8 mph - N/A   Mostly Cloudy
12:52 AM 48.2 °F - 48.2 °F 100% 30.18 in 10.0 mi North 12.7 mph - N/A   Mostly Cloudy
12:58 AM 48.2 °F - 48.2 °F 100% 30.19 in 10.0 mi North 13.8 mph - 0.00 in   Mostly Cloudy
1:03 AM 48.2 °F - 48.2 °F 100% 30.19 in 10.0 mi North 13.8 mph - N/A   Overcast
1:11 AM 48.2 °F - 48.2 °F 100% 30.18 in 10.0 mi NNE 10.4 mph - N/A Rain Light Rain
1:29 AM 48.2 °F - 48.2 °F 100% 30.19 in 10.0 mi NNE 15.0 mph - N/A   Overcast
1:34 AM 48.2 °F - 48.2 °F 100% 30.19 in 10.0 mi North 10.4 mph - N/A   Overcast
1:39 AM 46.4 °F 40.1 °F 46.4 °F 100% 30.19 in 10.0 mi North 15.0 mph 19.6 mph N/A   Overcast
1:44 AM 46.4 °F 40.4 °F 46.4 °F 100% 30.18 in 10.0 mi North 13.8 mph 19.6 mph N/A   Overcast
1:54 AM 46.4 °F 40.4 °F 46.4 °F 100% 30.18 in 10.0 mi North 13.8 mph - N/A   Overcast
1:58 AM 46.4 °F 40.4 °F 46.4 °F 100% 30.20 in 10.0 mi North 13.8 mph - 0.01 in   Overcast
2:06 AM 46.4 °F 40.1 °F 46.4 °F 100% 30.19 in 10.0 mi North 15.0 mph 19.6 mph N/A Rain Light Rain
2:11 AM 46.4 °F 40.4 °F 46.4 °F 100% 30.19 in 7.0 mi North 13.8 mph - N/A Rain Light Rain
2:16 AM 46.4 °F 40.4 °F 46.4 °F 100% 30.19 in 5.0 mi North 13.8 mph - N/A Rain Heavy Rain
2:21 AM 46.4 °F 40.1 °F 46.4 °F 100% 30.19 in 4.0 mi North 15.0 mph - N/A Rain Heavy Rain
2:26 AM 46.4 °F 40.4 °F 46.4 °F 100% 30.20 in 4.0 mi North 13.8 mph 19.6 mph N/A Rain Rain
2:31 AM 46.4 °F 39.8 °F 46.4 °F 100% 30.20 in 4.0 mi North 16.1 mph - N/A Rain Rain
2:36 AM 46.4 °F 39.5 °F 46.4 °F 100% 30.20 in 4.0 mi North 17.3 mph - N/A Rain Rain
2:41 AM 44.6 °F 37.8 °F 44.6 °F 100% 30.20 in 5.0 mi North 15.0 mph - N/A Rain Rain
2:46 AM 44.6 °F 37.8 °F 44.6 °F 100% 30.20 in 8.0 mi North 15.0 mph - N/A Rain Light Rain
2:56 AM 44.6 °F 37.8 °F 44.6 °F 100% 30.20 in 9.0 mi North 15.0 mph 21.9 mph N/A Rain Light Rain
2:58 AM 45.1 °F 38.4 °F 45.1 °F 100% 30.21 in 10.0 mi North 15.0 mph 21.9 mph 0.13 in Rain Light Rain
3:03 AM 44.6 °F 37.4 °F 44.6 °F 100% 30.20 in 10.0 mi North 16.1 mph 20.7 mph N/A Rain Light Rain
3:08 AM 44.6 °F 37.8 °F 44.6 °F 100% 30.20 in 10.0 mi North 15.0 mph 20.7 mph N/A Rain Light Rain
3:21 AM 44.6 °F 38.4 °F 44.6 °F 100% 30.20 in 10.0 mi North 12.7 mph - N/A   Mostly Cloudy
3:31 AM 44.6 °F 38.4 °F 44.6 °F 100% 30.20 in 10.0 mi North 12.7 mph 18.4 mph N/A   Overcast
3:58 AM 44.8 °F 37.4 °F 44.8 °F 100% 30.21 in 10.0 mi North 17.3 mph 21.9 mph 0.00 in   Overcast
4:13 AM 44.6 °F 37.8 °F 44.6 °F 100% 30.20 in 10.0 mi North 15.0 mph - N/A   Overcast
4:58 AM 43.2 °F 35.9 °F 43.2 °F 100% 30.23 in 10.0 mi NNE 15.0 mph 20.7 mph N/A   Overcast
5:03 AM 42.8 °F 35.4 °F 42.8 °F 100% 30.22 in 10.0 mi NNE 15.0 mph 20.7 mph N/A   Overcast
5:33 AM 42.8 °F 35.4 °F 42.8 °F 100% 30.23 in 10.0 mi NNE 15.0 mph - N/A   Overcast
5:58 AM 42.6 °F 35.9 °F 42.6 °F 100% 30.26 in 10.0 mi North 12.7 mph - N/A   Overcast
6:33 AM 42.8 °F 36.2 °F 42.8 °F 100% 30.26 in 10.0 mi NNE 12.7 mph 23.0 mph N/A   Overcast
6:43 AM 42.8 °F 35.1 °F 42.8 °F 100% 30.26 in 10.0 mi NNE 16.1 mph - N/A   Overcast
6:58 AM 42.1 °F 34.9 °F 42.1 °F 100% 30.27 in 10.0 mi North 13.8 mph - N/A   Overcast
7:58 AM 42.3 °F 34.4 °F 42.3 °F 100% 30.29 in 10.0 mi NNE 16.1 mph 21.9 mph N/A   Overcast
8:23 AM 42.8 °F 35.8 °F 42.8 °F 100% 30.28 in 10.0 mi NNE 13.8 mph - N/A   Overcast
8:58 AM 42.3 °F 34.8 °F 42.3 °F 100% 30.30 in 10.0 mi NNE 15.0 mph 20.7 mph N/A   Overcast
9:43 AM 42.8 °F 35.1 °F 42.8 °F 100% 30.30 in 10.0 mi NNE 16.1 mph - N/A   Overcast
9:53 AM 42.8 °F 35.4 °F 42.8 °F 100% 30.30 in 10.0 mi NNE 15.0 mph - N/A   Overcast
9:58 AM 42.4 °F 35.3 °F 42.4 °F 100% 30.31 in 10.0 mi NNE 13.8 mph - N/A   Overcast
10:18 AM 42.8 °F 36.6 °F 42.8 °F 100% 30.30 in 10.0 mi NNE 11.5 mph - N/A   Overcast
10:23 AM 42.8 °F 35.4 °F 42.8 °F 100% 30.30 in 10.0 mi NNE 15.0 mph - N/A   Overcast
10:58 AM 42.6 °F 35.9 °F 42.4 °F 99% 30.31 in 10.0 mi NNE 12.7 mph - N/A   Overcast
11:58 AM 42.8 °F 35.4 °F 42.4 °F 99% 30.29 in 10.0 mi NNE 15.0 mph 20.7 mph N/A   Overcast
12:33 PM 42.8 °F 36.6 °F 42.8 °F 100% 30.27 in 10.0 mi NNE 11.5 mph - N/A   Overcast
12:38 PM 42.8 °F 37.0 °F 42.8 °F 100% 30.27 in 10.0 mi NNE 10.4 mph - N/A   Overcast
12:58 PM 42.4 °F 34.7 °F 42.1 °F 99% 30.27 in 7.0 mi NE 16.1 mph 19.6 mph 0.01 in   Overcast
1:58 PM 42.3 °F 36.3 °F 41.9 °F 99% 30.25 in 10.0 mi NNE 10.4 mph - N/A   Overcast
2:23 PM 42.8 °F 35.8 °F 41.0 °F 93% 30.23 in 10.0 mi NNE 13.8 mph - N/A   Overcast
2:58 PM 42.4 °F 36.5 °F 41.7 °F 97% 30.24 in 10.0 mi North 10.4 mph - N/A   Overcast
3:33 PM 42.8 °F 37.5 °F 41.0 °F 93% 30.23 in 10.0 mi NNE 9.2 mph - N/A   Overcast
3:38 PM 41.0 °F 33.9 °F 41.0 °F 100% 30.23 in 10.0 mi NNE 12.7 mph - N/A   Overcast
3:43 PM 41.0 °F 34.3 °F 41.0 °F 100% 30.23 in 10.0 mi NNE 11.5 mph 18.4 mph N/A   Overcast
3:58 PM 41.7 °F 35.6 °F 41.0 °F 97% 30.25 in 10.0 mi NE 10.4 mph - N/A   Overcast
4:38 PM 41.0 °F 35.2 °F 41.0 °F 100% 30.24 in 8.0 mi NNE 9.2 mph - N/A   Overcast
4:58 PM 41.4 °F 35.2 °F 41.0 °F 99% 30.25 in 10.0 mi NNE 10.4 mph - N/A   Overcast
5:13 PM 41.0 °F 34.3 °F 41.0 °F 100% 30.24 in 10.0 mi NNE 11.5 mph - N/A   Overcast
5:18 PM 41.0 °F 34.7 °F 41.0 °F 100% 30.24 in 10.0 mi NNE 10.4 mph - N/A   Overcast
5:23 PM 41.0 °F 33.9 °F 41.0 °F 100% 30.24 in 9.0 mi NNE 12.7 mph - N/A   Overcast
5:43 PM 41.0 °F 33.9 °F 41.0 °F 100% 30.25 in 10.0 mi North 12.7 mph - N/A   Overcast
5:58 PM 40.8 °F 33.7 °F 40.8 °F 100% 30.26 in 10.0 mi NNE 12.7 mph - N/A   Overcast
6:58 PM 41.2 °F 35.0 °F 41.0 °F 99% 30.26 in 10.0 mi NNE 10.4 mph - N/A   Overcast
7:53 PM 41.0 °F 33.5 °F 41.0 °F 100% 30.25 in 9.0 mi NE 13.8 mph - N/A   Overcast
7:58 PM 41.5 °F 35.0 °F 41.5 °F 100% 30.26 in 7.0 mi NE 11.5 mph - N/A   Overcast
8:03 PM 41.0 °F 35.2 °F 41.0 °F 100% 30.25 in 6.0 mi NE 9.2 mph - N/A   Overcast
8:08 PM 41.0 °F 35.8 °F 41.0 °F 100% 30.25 in 8.0 mi NE 8.1 mph - N/A   Overcast
8:18 PM 41.0 °F 35.2 °F 41.0 °F 100% 30.25 in 6.0 mi NE 9.2 mph - N/A   Overcast
8:28 PM 41.0 °F 34.7 °F 41.0 °F 100% 30.25 in 5.0 mi NE 10.4 mph - N/A   Overcast
8:43 PM 41.0 °F 35.2 °F 41.0 °F 100% 30.24 in 7.0 mi NNE 9.2 mph - N/A   Overcast
8:58 PM 41.4 °F 36.2 °F 41.4 °F 100% 30.26 in 8.0 mi NNE 8.1 mph - N/A   Overcast
9:28 PM 41.0 °F 36.4 °F 41.0 °F 100% 30.25 in 7.0 mi NE 6.9 mph - N/A   Overcast
9:48 PM 41.0 °F 35.2 °F 41.0 °F 100% 30.26 in 7.0 mi NE 9.2 mph - N/A   Overcast
9:58 PM 41.9 °F 36.3 °F 41.9 °F 100% 30.27 in 8.0 mi NE 9.2 mph - N/A   Overcast
10:13 PM 42.8 °F 38.6 °F 42.8 °F 100% 30.26 in 8.0 mi NNE 6.9 mph - N/A   Overcast
10:28 PM 42.8 °F 37.5 °F 42.8 °F 100% 30.26 in 6.0 mi NE 9.2 mph - N/A   Overcast
10:38 PM 42.8 °F 37.0 °F 42.8 °F 100% 30.25 in 4.0 mi NNE 10.4 mph - N/A   Overcast
10:43 PM 42.8 °F 37.5 °F 42.8 °F 100% 30.25 in 4.0 mi NE 9.2 mph - N/A   Overcast
10:53 PM 42.8 °F 37.5 °F 42.8 °F 100% 30.25 in 4.0 mi NE 9.2 mph - N/A   Overcast
10:58 PM 42.1 °F 37.1 °F 42.1 °F 100% 30.26 in 4.0 mi NE 8.1 mph - N/A   Overcast
11:03 PM 42.8 °F 38.0 °F 42.8 °F 100% 30.25 in 5.0 mi NNE 8.1 mph - N/A   Overcast
11:08 PM 42.8 °F 37.5 °F 42.8 °F 100% 30.25 in 5.0 mi NE 9.2 mph - N/A   Overcast
11:23 PM 42.8 °F 38.6 °F 42.8 °F 100% 30.24 in 6.0 mi NE 6.9 mph - N/A   Overcast
11:28 PM 42.8 °F 37.5 °F 42.8 °F 100% 30.24 in 6.0 mi NE 9.2 mph - N/A   Overcast
11:38 PM 42.8 °F 38.0 °F 42.8 °F 100% 30.23 in 6.0 mi NNE 8.1 mph - N/A   Overcast
11:53 PM 42.8 °F 38.0 °F 42.8 °F 100% 30.23 in 8.0 mi NE 8.1 mph - N/A   Overcast
11:58 PM 42.3 °F 38.6 °F 42.3 °F 100% 30.25 in 8.0 mi NNE 5.8 mph - N/A   Overcast